createdAt,value
2019-01-31T00:00:30.082Z,98538.25
2019-01-31T00:03:07.608Z,98537.42
2019-01-31T00:05:54.074Z,98539.95
2019-01-31T00:08:45.545Z,98533.66
2019-01-31T00:11:25.331Z,98543.72
2019-01-31T00:13:56.814Z,98538.70
2019-01-31T00:16:40.102Z,98536.17
2019-01-31T00:19:14.442Z,98541.22
2019-01-31T00:21:48.489Z,98537.05
2019-01-31T00:24:22.450Z,98542.05
2019-01-31T00:27:02.691Z,98546.27
2019-01-31T00:29:36.949Z,98547.95
2019-01-31T00:32:14.258Z,98551.31
2019-01-31T00:34:57.769Z,98551.80
2019-01-31T00:37:48.842Z,98557.23
2019-01-31T00:40:43.099Z,98559.31
2019-01-31T00:43:23.308Z,98568.13
2019-01-31T00:46:00.593Z,98561.88
2019-01-31T00:48:34.637Z,98574.50
2019-01-31T00:51:12.129Z,98576.59
2019-01-31T00:53:43.667Z,98575.31
2019-01-31T00:56:34.555Z,98568.64
2019-01-31T00:59:06.050Z,98574.19
2019-01-31T01:01:43.525Z,98576.72
2019-01-31T01:04:20.702Z,98568.33
2019-01-31T01:06:55.863Z,98570.91
2019-01-31T01:09:39.214Z,98572.12
2019-01-31T01:12:13.332Z,98571.79
2019-01-31T01:14:53.343Z,98572.25
2019-01-31T01:17:33.595Z,98580.23
2019-01-31T01:20:32.195Z,98582.76
2019-01-31T01:23:06.525Z,98588.58
2019-01-31T01:25:56.111Z,98581.50
2019-01-31T01:28:44.162Z,98584.45
2019-01-31T01:31:24.336Z,98582.33
2019-01-31T01:34:17.815Z,98586.49
2019-01-31T01:37:07.278Z,98586.91
2019-01-31T01:39:55.317Z,98593.17
2019-01-31T01:42:32.565Z,98584.78
2019-01-31T01:45:16.098Z,98588.57
2019-01-31T01:47:47.608Z,98591.53
2019-01-31T01:50:37.058Z,98593.66
2019-01-31T01:53:08.742Z,98595.48
2019-01-31T01:56:13.535Z,98596.80
2019-01-31T01:59:06.094Z,98604.42
2019-01-31T02:01:40.210Z,98601.08
2019-01-31T02:04:17.602Z,98603.27
2019-01-31T02:06:51.914Z,98599.14
2019-01-31T02:09:35.555Z,98600.84
2019-01-31T02:12:16.010Z,98606.36
2019-01-31T02:14:56.609Z,98605.94
2019-01-31T02:17:49.308Z,98611.41
2019-01-31T02:20:26.506Z,98606.81
2019-01-31T02:23:00.905Z,98609.37
2019-01-31T02:25:35.083Z,98615.70
2019-01-31T02:28:21.486Z,98609.84
2019-01-31T02:31:13.539Z,98606.50
2019-01-31T02:34:03.060Z,98610.31
2019-01-31T02:36:34.521Z,98610.41
2019-01-31T02:39:24.105Z,98604.58
2019-01-31T02:42:01.004Z,98610.45
2019-01-31T02:44:41.319Z,98597.47
2019-01-31T02:47:12.796Z,98602.11
2019-01-31T02:50:05.619Z,98610.09
2019-01-31T02:52:41.679Z,98605.06
2019-01-31T02:55:13.167Z,98608.00
2019-01-31T02:57:47.193Z,98604.23
2019-01-31T03:00:27.640Z,98600.88
2019-01-31T03:03:04.794Z,98611.81
2019-01-31T03:05:38.928Z,98611.84
2019-01-31T03:08:13.118Z,98618.97
2019-01-31T03:10:47.615Z,98617.74
2019-01-31T03:13:19.127Z,98614.86
2019-01-31T03:15:59.403Z,98614.00
2019-01-31T03:18:36.890Z,98613.57
2019-01-31T03:21:08.366Z,98611.52
2019-01-31T03:24:02.305Z,98609.46
2019-01-31T03:26:42.661Z,98615.35
2019-01-31T03:29:39.903Z,98613.27
2019-01-31T03:32:17.352Z,98609.48
2019-01-31T03:34:51.734Z,98607.00
2019-01-31T03:37:38.362Z,98610.77
2019-01-31T03:40:32.511Z,98611.60
2019-01-31T03:43:20.486Z,98618.38
2019-01-31T03:46:19.271Z,98618.37
2019-01-31T03:48:53.465Z,98615.48
2019-01-31T03:51:39.995Z,98620.53
2019-01-31T03:54:17.229Z,98625.95
2019-01-31T03:56:57.611Z,98622.19
2019-01-31T03:59:29.349Z,98628.05
2019-01-31T04:02:12.755Z,98636.01
2019-01-31T04:04:49.403Z,98643.16
2019-01-31T04:07:17.844Z,98650.27
2019-01-31T04:09:46.261Z,98644.41
2019-01-31T04:12:14.704Z,98650.70
2019-01-31T04:14:43.144Z,98648.58
2019-01-31T04:17:11.598Z,98650.69
2019-01-31T04:19:40.045Z,98652.36
2019-01-31T04:22:09.211Z,98655.69
2019-01-31T04:24:37.635Z,98660.66
2019-01-31T04:27:06.139Z,98658.16
2019-01-31T04:29:34.603Z,98660.21
2019-01-31T04:32:03.076Z,98663.96
2019-01-31T04:34:31.538Z,98663.11
2019-01-31T04:36:59.963Z,98673.58
2019-01-31T04:39:28.410Z,98667.69
2019-01-31T04:41:56.868Z,98675.17
2019-01-31T04:44:25.282Z,98670.98
2019-01-31T04:46:53.731Z,98668.46
2019-01-31T04:49:22.218Z,98673.03
2019-01-31T04:51:50.706Z,98668.41
2019-01-31T04:54:19.275Z,98671.75
2019-01-31T04:56:47.694Z,98670.06
2019-01-31T04:59:16.106Z,98673.83
2019-01-31T05:01:44.546Z,98673.83
2019-01-31T05:04:12.963Z,98681.38
2019-01-31T05:06:41.493Z,98673.00
2019-01-31T05:09:10.311Z,98675.09
2019-01-31T05:11:38.690Z,98670.92
2019-01-31T05:14:07.117Z,98677.61
2019-01-31T05:16:35.555Z,98681.81
2019-01-31T05:19:04.106Z,98682.64
2019-01-31T05:21:32.542Z,98681.41
2019-01-31T05:24:00.982Z,98679.73
2019-01-31T05:26:29.423Z,98679.30
2019-01-31T05:28:57.888Z,98672.61
2019-01-31T05:31:26.414Z,98677.64
2019-01-31T05:33:54.902Z,98676.81
2019-01-31T05:36:23.346Z,98686.08
2019-01-31T05:38:51.769Z,98677.67
2019-01-31T05:41:20.210Z,98682.76
2019-01-31T05:43:48.689Z,98685.70
2019-01-31T05:46:18.439Z,98690.30
2019-01-31T05:48:47.132Z,98687.38
2019-01-31T05:51:15.542Z,98688.22
2019-01-31T05:53:43.999Z,98689.47
2019-01-31T05:56:12.439Z,98690.33
2019-01-31T05:58:40.855Z,98685.30
2019-01-31T06:01:09.325Z,98691.59
2019-01-31T06:03:37.757Z,98688.23
2019-01-31T06:06:06.254Z,98691.64
2019-01-31T06:08:34.722Z,98695.38
2019-01-31T06:11:07.617Z,98701.30
2019-01-31T06:13:33.383Z,98699.20
2019-01-31T06:16:01.798Z,98704.25
2019-01-31T06:18:30.233Z,98705.50
2019-01-31T06:20:58.764Z,98708.89
2019-01-31T06:23:27.342Z,98708.45
2019-01-31T06:25:55.808Z,98715.19
2019-01-31T06:28:24.228Z,98709.77
2019-01-31T06:30:52.734Z,98712.27
2019-01-31T06:33:21.227Z,98715.20
2019-01-31T06:35:49.682Z,98714.39
2019-01-31T06:38:18.204Z,98711.46
2019-01-31T06:40:46.626Z,98713.14
2019-01-31T06:43:15.441Z,98714.39
2019-01-31T06:45:43.881Z,98723.20
2019-01-31T06:48:12.351Z,98728.64
2019-01-31T06:50:40.772Z,98734.09
2019-01-31T06:53:09.245Z,98739.11
2019-01-31T06:55:37.715Z,98750.42
2019-01-31T06:58:06.147Z,98747.91
2019-01-31T07:00:34.590Z,98752.50
2019-01-31T07:03:03.029Z,98757.55
2019-01-31T07:05:31.491Z,98758.37
2019-01-31T07:07:59.938Z,98761.73
2019-01-31T07:10:28.452Z,98761.31
2019-01-31T07:12:56.916Z,98765.92
2019-01-31T07:15:25.335Z,98765.48
2019-01-31T07:17:53.795Z,98768.42
2019-01-31T07:20:22.364Z,98779.31
2019-01-31T07:22:50.974Z,98777.62
2019-01-31T07:25:21.751Z,98783.48
2019-01-31T07:27:50.243Z,98788.09
2019-01-31T07:30:23.320Z,98791.86
2019-01-31T07:32:51.998Z,98793.11
2019-01-31T07:35:20.883Z,98791.03
2019-01-31T07:37:49.291Z,98795.63
2019-01-31T07:40:20.285Z,98795.19
2019-01-31T07:42:48.704Z,98798.09
2019-01-31T07:45:20.054Z,98799.34
2019-01-31T07:47:48.551Z,98796.73
2019-01-31T07:50:21.123Z,98801.25
2019-01-31T07:52:49.661Z,98801.96
2019-01-31T07:55:19.146Z,98808.09
2019-01-31T07:57:47.563Z,98808.80
2019-01-31T08:00:21.095Z,98809.80
2019-01-31T08:02:49.528Z,98810.53
2019-01-31T08:05:25.541Z,98808.68
2019-01-31T08:07:56.435Z,98807.24
2019-01-31T08:10:30.560Z,98804.42
2019-01-31T08:12:59.081Z,98812.05
2019-01-31T08:15:27.595Z,98808.36
2019-01-31T08:17:56.012Z,98809.56
2019-01-31T08:20:24.435Z,98813.23
2019-01-31T08:22:52.951Z,98819.73
2019-01-31T08:25:26.137Z,98825.72
2019-01-31T08:27:56.068Z,98826.27
2019-01-31T08:30:27.233Z,98828.34
2019-01-31T08:32:56.040Z,98832.27
2019-01-31T08:35:24.513Z,98833.72
2019-01-31T08:37:52.916Z,98833.06
2019-01-31T08:40:21.461Z,98833.53
2019-01-31T08:42:49.911Z,98836.69
2019-01-31T08:45:18.406Z,98839.09
2019-01-31T08:47:46.898Z,98836.97
2019-01-31T08:50:21.405Z,98835.34
2019-01-31T08:52:49.826Z,98839.50
2019-01-31T08:55:18.325Z,98838.33
2019-01-31T08:57:47.673Z,98827.23
2019-01-31T09:00:21.897Z,98840.23
2019-01-31T09:02:50.306Z,98839.30
2019-01-31T09:05:18.721Z,98845.61
2019-01-31T09:07:47.441Z,98842.94
2019-01-31T09:10:21.484Z,98842.36
2019-01-31T09:12:50.003Z,98848.06
2019-01-31T09:15:23.124Z,98848.33
2019-01-31T09:17:51.675Z,98853.13
2019-01-31T09:20:44.478Z,98853.70
2019-01-31T09:23:24.763Z,98860.34
2019-01-31T09:26:10.831Z,98862.74
2019-01-31T09:28:57.454Z,98862.94
2019-01-31T09:31:51.121Z,98864.48
2019-01-31T09:34:34.501Z,98859.61
2019-01-31T09:37:08.687Z,98867.17
2019-01-31T09:39:46.017Z,98863.59
2019-01-31T09:42:26.953Z,98868.08
2019-01-31T09:45:16.637Z,98865.45
2019-01-31T09:47:53.962Z,98871.55
2019-01-31T09:50:47.906Z,98868.91
2019-01-31T09:53:21.873Z,98871.33
2019-01-31T09:56:19.118Z,98877.52
2019-01-31T09:58:53.195Z,98870.68
2019-01-31T10:01:42.579Z,98868.29
2019-01-31T10:04:16.937Z,98872.61
2019-01-31T10:07:03.006Z,98882.09
2019-01-31T10:09:42.656Z,98871.11
2019-01-31T10:12:48.766Z,98867.04
2019-01-31T10:15:25.971Z,98866.11
2019-01-31T10:18:00.263Z,98874.67
2019-01-31T10:20:40.684Z,98875.23
2019-01-31T10:23:21.035Z,98870.45
2019-01-31T10:26:04.641Z,98863.95
2019-01-31T10:28:48.235Z,98862.95
2019-01-31T10:31:31.413Z,98865.38
2019-01-31T10:34:22.394Z,98862.10
2019-01-31T10:37:16.210Z,98869.20
2019-01-31T10:39:53.553Z,98858.20
2019-01-31T10:42:36.823Z,98860.35
2019-01-31T10:45:24.676Z,98861.06
2019-01-31T10:47:56.069Z,98857.27
2019-01-31T10:50:48.358Z,98855.27
2019-01-31T10:53:44.009Z,98849.77
2019-01-31T10:56:27.027Z,98849.00
2019-01-31T10:58:58.496Z,98842.23
2019-01-31T11:01:49.392Z,98841.10
2019-01-31T11:04:29.444Z,98846.84
2019-01-31T11:07:10.000Z,98842.22
2019-01-31T11:09:59.606Z,98835.42
2019-01-31T11:12:43.697Z,98837.59
2019-01-31T11:15:20.924Z,98837.65
2019-01-31T11:18:04.330Z,98836.11
2019-01-31T11:20:38.716Z,98836.44
2019-01-31T11:23:29.380Z,98836.80
2019-01-31T11:26:21.921Z,98828.84
2019-01-31T11:28:59.178Z,98827.33
2019-01-31T11:31:39.268Z,98829.03
2019-01-31T11:34:10.858Z,98825.58
2019-01-31T11:36:57.222Z,98822.06
2019-01-31T11:39:40.697Z,98818.89
2019-01-31T11:42:17.820Z,98819.00
2019-01-31T11:44:49.311Z,98814.33
2019-01-31T11:47:43.404Z,98813.58
2019-01-31T11:50:17.451Z,98813.13
2019-01-31T11:52:54.410Z,98807.80
2019-01-31T11:55:41.078Z,98807.59
2019-01-31T11:58:24.394Z,98810.87
2019-01-31T12:00:53.249Z,98810.24
2019-01-31T12:03:22.310Z,98806.62
2019-01-31T12:05:58.432Z,98798.56
2019-01-31T12:08:26.905Z,98796.38
2019-01-31T12:10:55.335Z,98795.59
2019-01-31T12:13:23.970Z,98793.50
2019-01-31T12:15:54.224Z,98793.72
2019-01-31T12:18:22.769Z,98792.78
2019-01-31T12:20:51.242Z,98792.22
2019-01-31T12:23:19.748Z,98784.84
2019-01-31T12:25:48.278Z,98780.97
2019-01-31T12:28:16.742Z,98785.91
2019-01-31T12:30:45.177Z,98775.45
2019-01-31T12:33:13.621Z,98779.50
2019-01-31T12:35:42.106Z,98780.38
2019-01-31T12:38:10.526Z,98780.08
2019-01-31T12:40:38.960Z,98780.48
2019-01-31T12:43:07.450Z,98778.89
2019-01-31T12:45:35.943Z,98781.74
2019-01-31T12:48:04.459Z,98780.33
2019-01-31T12:50:32.887Z,98780.27
2019-01-31T12:53:02.358Z,98781.97
2019-01-31T12:55:30.801Z,98779.35
2019-01-31T12:57:59.293Z,98784.31
2019-01-31T13:00:28.706Z,98779.58
2019-01-31T13:02:57.159Z,98775.31
2019-01-31T13:05:25.762Z,98777.52
2019-01-31T13:07:54.249Z,98777.98
2019-01-31T13:10:22.779Z,98772.91
2019-01-31T13:12:52.231Z,98764.52
2019-01-31T13:15:20.945Z,98767.58
2019-01-31T13:17:49.378Z,98765.86
2019-01-31T13:20:20.126Z,98760.60
2019-01-31T13:22:51.451Z,98767.28
2019-01-31T13:25:20.852Z,98761.50
2019-01-31T13:27:49.426Z,98762.33
2019-01-31T13:30:20.706Z,98765.75
2019-01-31T13:32:50.062Z,98763.78
2019-01-31T13:35:18.479Z,98762.89
2019-01-31T13:37:46.894Z,98762.05
2019-01-31T13:40:18.253Z,98754.57
2019-01-31T13:42:46.814Z,98761.35
2019-01-31T13:45:21.478Z,98757.10
2019-01-31T13:47:50.040Z,98756.27
2019-01-31T13:50:18.609Z,98752.95
2019-01-31T13:52:47.096Z,98759.94
2019-01-31T13:55:21.386Z,98751.95
2019-01-31T13:57:49.788Z,98758.91
2019-01-31T14:00:20.669Z,98755.33
2019-01-31T14:02:49.169Z,98762.42
2019-01-31T14:05:17.664Z,98757.41
2019-01-31T14:07:46.215Z,98754.73
2019-01-31T14:10:25.607Z,98755.47
2019-01-31T14:12:55.077Z,98758.91
2019-01-31T14:15:33.381Z,98764.81
2019-01-31T14:17:56.858Z,98764.89
2019-01-31T14:20:27.596Z,98762.98
2019-01-31T14:22:56.482Z,98764.31
2019-01-31T14:25:25.004Z,98757.05
2019-01-31T14:27:53.541Z,98758.30
2019-01-31T14:30:27.898Z,98756.14
2019-01-31T14:32:56.877Z,98754.56
2019-01-31T14:35:25.545Z,98750.41
2019-01-31T14:37:53.956Z,98755.39
2019-01-31T14:40:22.932Z,98753.30
2019-01-31T14:42:51.438Z,98755.04
2019-01-31T14:45:19.835Z,98751.34
2019-01-31T14:47:48.254Z,98755.14
2019-01-31T14:50:34.310Z,98754.01
2019-01-31T14:53:02.739Z,98753.60
2019-01-31T14:55:31.184Z,98753.12
2019-01-31T14:57:59.654Z,98745.64
2019-01-31T15:00:32.809Z,98748.61
2019-01-31T15:03:01.426Z,98757.97
2019-01-31T15:05:29.963Z,98756.70
2019-01-31T15:07:58.360Z,98749.14
2019-01-31T15:10:29.040Z,98758.81
2019-01-31T15:12:57.681Z,98755.09
2019-01-31T15:15:26.349Z,98760.66
2019-01-31T15:17:55.706Z,98756.52
2019-01-31T15:20:37.488Z,98761.58
2019-01-31T15:23:00.277Z,98761.60
2019-01-31T15:25:29.233Z,98756.22
2019-01-31T15:27:57.691Z,98747.83
2019-01-31T15:30:35.227Z,98752.50
2019-01-31T15:33:06.600Z,98750.87
2019-01-31T15:35:35.024Z,98749.63
2019-01-31T15:38:03.577Z,98752.61
2019-01-31T15:40:43.569Z,98755.64
2019-01-31T15:43:12.133Z,98748.94
2019-01-31T15:45:40.732Z,98754.08
2019-01-31T15:48:10.737Z,98753.64
2019-01-31T15:50:39.567Z,98751.98
2019-01-31T15:53:08.226Z,98747.90
2019-01-31T15:55:36.965Z,98748.75
2019-01-31T15:58:06.661Z,98747.08
2019-01-31T16:00:42.091Z,98752.64
2019-01-31T16:03:12.651Z,98746.80
2019-01-31T16:05:41.512Z,98747.73
2019-01-31T16:08:10.935Z,98754.61
2019-01-31T16:10:39.466Z,98754.30
2019-01-31T16:13:08.709Z,98760.19
2019-01-31T16:15:37.278Z,98762.75
2019-01-31T16:18:08.407Z,98756.13
2019-01-31T16:20:37.325Z,98756.62
2019-01-31T16:23:09.130Z,98758.72
2019-01-31T16:25:37.731Z,98755.36
2019-01-31T16:28:06.311Z,98754.92
2019-01-31T16:30:34.811Z,98751.97
2019-01-31T16:33:03.369Z,98750.31
2019-01-31T16:35:32.222Z,98748.23
2019-01-31T16:38:00.622Z,98752.47
2019-01-31T16:40:29.080Z,98748.67
2019-01-31T16:42:57.646Z,98742.86
2019-01-31T16:45:26.425Z,98747.12
2019-01-31T16:47:54.891Z,98747.56
2019-01-31T16:50:25.178Z,98748.88
2019-01-31T16:52:53.677Z,98749.03
2019-01-31T16:55:27.260Z,98752.48
2019-01-31T16:57:57.240Z,98748.39
2019-01-31T17:00:31.246Z,98744.22
2019-01-31T17:03:00.537Z,98744.22
2019-01-31T17:05:33.418Z,98745.92
2019-01-31T17:08:01.903Z,98737.09
2019-01-31T17:10:30.311Z,98741.31
2019-01-31T17:13:00.081Z,98740.48
2019-01-31T17:15:29.320Z,98740.92
2019-01-31T17:17:57.818Z,98739.70
2019-01-31T17:20:35.214Z,98741.36
2019-01-31T17:23:04.123Z,98736.75
2019-01-31T17:25:32.666Z,98733.41
2019-01-31T17:28:01.158Z,98732.19
2019-01-31T17:30:30.310Z,98727.97
2019-01-31T17:33:00.366Z,98733.88
2019-01-31T17:35:29.136Z,98736.00
2019-01-31T17:37:57.562Z,98730.60
2019-01-31T17:40:31.660Z,98731.11
2019-01-31T17:43:00.233Z,98727.36
2019-01-31T17:45:30.973Z,98731.54
2019-01-31T17:47:59.087Z,98729.05
2019-01-31T17:50:27.573Z,98729.58
2019-01-31T17:52:56.093Z,98719.97
2019-01-31T17:55:27.117Z,98718.28
2019-01-31T17:57:55.596Z,98718.28
2019-01-31T18:00:34.168Z,98722.45
2019-01-31T18:03:02.647Z,98722.05
2019-01-31T18:05:31.071Z,98715.73
2019-01-31T18:07:59.537Z,98711.95
2019-01-31T18:10:28.114Z,98711.49
2019-01-31T18:12:56.572Z,98712.72
2019-01-31T18:15:25.165Z,98711.89
2019-01-31T18:17:53.932Z,98704.30
2019-01-31T18:20:23.898Z,98716.47
2019-01-31T18:22:52.589Z,98710.96
2019-01-31T18:25:21.083Z,98716.36
2019-01-31T18:27:49.554Z,98718.88
2019-01-31T18:30:29.864Z,98717.14
2019-01-31T18:32:58.363Z,98717.54
2019-01-31T18:35:26.885Z,98715.45
2019-01-31T18:37:55.392Z,98720.06
2019-01-31T18:40:26.597Z,98710.81
2019-01-31T18:42:55.258Z,98703.69
2019-01-31T18:45:26.523Z,98714.63
2019-01-31T18:47:54.960Z,98707.50
2019-01-31T18:50:28.499Z,98717.19
2019-01-31T18:52:57.184Z,98707.11
2019-01-31T18:55:26.650Z,98712.19
2019-01-31T18:57:55.410Z,98712.62
2019-01-31T19:00:29.803Z,98717.26
2019-01-31T19:02:58.786Z,98710.96
2019-01-31T19:05:27.276Z,98713.48
2019-01-31T19:07:56.157Z,98711.80
2019-01-31T19:10:24.664Z,98713.52
2019-01-31T19:12:53.281Z,98712.66
2019-01-31T19:15:23.967Z,98711.83
2019-01-31T19:17:52.738Z,98714.77
2019-01-31T19:20:31.687Z,98718.59
2019-01-31T19:23:05.881Z,98714.38
2019-01-31T19:25:35.105Z,98716.89
2019-01-31T19:28:03.611Z,98717.75
2019-01-31T19:30:40.328Z,98711.89
2019-01-31T19:33:09.500Z,98709.34
2019-01-31T19:35:38.048Z,98718.16
2019-01-31T19:38:07.509Z,98709.34
2019-01-31T19:40:43.564Z,98707.69
2019-01-31T19:43:12.377Z,98711.46
2019-01-31T19:45:43.602Z,98709.38
2019-01-31T19:48:12.162Z,98709.73
2019-01-31T19:50:43.359Z,98709.31
2019-01-31T19:53:11.256Z,98707.26
2019-01-31T19:55:39.767Z,98703.05
2019-01-31T19:58:08.264Z,98704.77
2019-01-31T20:00:37.071Z,98701.82
2019-01-31T20:03:06.962Z,98706.00
2019-01-31T20:05:36.012Z,98702.66
2019-01-31T20:08:06.270Z,98691.75
2019-01-31T20:10:34.782Z,98690.49
2019-01-31T20:13:03.220Z,98687.58
2019-01-31T20:15:31.725Z,98683.41
2019-01-31T20:18:00.631Z,98689.73
2019-01-31T20:20:30.091Z,98687.15
2019-01-31T20:22:59.836Z,98689.27
2019-01-31T20:25:30.259Z,98684.30
2019-01-31T20:27:59.164Z,98690.16
2019-01-31T20:30:30.651Z,98694.39
2019-01-31T20:33:00.422Z,98694.39
2019-01-31T20:35:29.497Z,98687.28
2019-01-31T20:37:58.087Z,98684.39
2019-01-31T20:40:29.425Z,98685.67
2019-01-31T20:42:58.122Z,98678.50
2019-01-31T20:45:26.949Z,98681.05
2019-01-31T20:47:55.362Z,98679.81
2019-01-31T20:50:29.379Z,98676.03
2019-01-31T20:52:58.527Z,98674.41
2019-01-31T20:55:27.101Z,98675.27
2019-01-31T20:57:55.584Z,98673.55
2019-01-31T21:00:33.868Z,98674.41
2019-01-31T21:03:02.887Z,98665.11
2019-01-31T21:05:31.437Z,98671.84
2019-01-31T21:08:00.020Z,98665.55
2019-01-31T21:10:28.525Z,98667.63
2019-01-31T21:12:57.156Z,98663.86
2019-01-31T21:15:26.589Z,98665.14
2019-01-31T21:17:55.388Z,98660.55
2019-01-31T21:20:26.387Z,98660.55
2019-01-31T21:22:56.069Z,98658.00
2019-01-31T21:25:24.669Z,98655.51
2019-01-31T21:27:53.618Z,98662.66
2019-01-31T21:30:28.177Z,98653.02
2019-01-31T21:32:56.829Z,98650.08
2019-01-31T21:35:27.213Z,98649.28
2019-01-31T21:37:55.777Z,98640.91
2019-01-31T21:40:26.719Z,98643.47
2019-01-31T21:42:55.196Z,98641.38
2019-01-31T21:45:24.949Z,98638.84
2019-01-31T21:47:53.393Z,98637.92
2019-01-31T21:50:24.439Z,98635.41
2019-01-31T21:52:52.877Z,98634.92
2019-01-31T21:55:21.737Z,98637.44
2019-01-31T21:57:50.234Z,98634.49
2019-01-31T22:00:24.616Z,98629.03
2019-01-31T22:02:53.103Z,98631.55
2019-01-31T22:05:22.633Z,98623.60
2019-01-31T22:07:51.103Z,98622.73
2019-01-31T22:10:20.779Z,98621.09
2019-01-31T22:12:49.294Z,98618.97
2019-01-31T22:15:31.206Z,98614.36
2019-01-31T22:18:00.426Z,98618.56
2019-01-31T22:20:29.556Z,98608.50
2019-01-31T22:22:58.235Z,98603.47
2019-01-31T22:25:26.772Z,98606.42
2019-01-31T22:27:55.214Z,98608.08
2019-01-31T22:30:29.623Z,98612.71
2019-01-31T22:32:58.134Z,98605.16
2019-01-31T22:35:26.537Z,98605.56
2019-01-31T22:37:55.082Z,98603.87
2019-01-31T22:40:23.760Z,98598.91
2019-01-31T22:42:52.346Z,98599.70
2019-01-31T22:45:26.415Z,98590.92
2019-01-31T22:47:56.216Z,98593.84
2019-01-31T22:50:25.091Z,98587.19
2019-01-31T22:52:53.555Z,98595.99
2019-01-31T22:55:24.122Z,98588.88
2019-01-31T22:57:53.011Z,98583.02
2019-01-31T23:00:44.077Z,98580.91
2019-01-31T23:03:12.732Z,98576.30
2019-01-31T23:05:41.286Z,98568.78
2019-01-31T23:08:09.801Z,98572.16
2019-01-31T23:10:38.361Z,98552.04
2019-01-31T23:13:06.886Z,98543.27
2019-01-31T23:15:35.388Z,98540.33
2019-01-31T23:18:04.090Z,98537.02
2019-01-31T23:20:32.640Z,98536.63
2019-01-31T23:23:01.084Z,98540.42
2019-01-31T23:25:39.726Z,98538.77
2019-01-31T23:27:59.983Z,98536.25
2019-01-31T23:30:28.483Z,98536.25
2019-01-31T23:32:56.989Z,98538.41
2019-01-31T23:35:25.462Z,98536.72
2019-01-31T23:37:53.903Z,98536.72
2019-01-31T23:40:22.532Z,98530.03
2019-01-31T23:42:51.235Z,98524.17
2019-01-31T23:45:20.524Z,98521.66
2019-01-31T23:47:49.398Z,98519.58
2019-01-31T23:50:18.199Z,98508.70
2019-01-31T23:52:46.751Z,98509.55
2019-01-31T23:55:19.407Z,98510.41
2019-01-31T23:57:47.982Z,98508.75
